Chanute Martin Johnson Airport Chanute US
ICAO: KCNU
IATA: CNU
Category: Medium
Scheduled Services: No

Elevation: 1002 ft
TransAlt. 18000 ft.

Airport Communications:
ASOS:127.075
KANSAS CITY CNTR:132.9
WICHITA RDO:122.35
CTAF/UNICOM:122.7

KCNU Zoom In..

Runways:

(A) RW 18 length 4255 ft width 75 ft
---- / hdg 182

(B) RW 36 length 4255 ft width 75 ft
---- / hdg 2

Location; KCNU
Day. 21 / Time. 06.02 Zulu
* Altimeter: 29.96
* Temperature: 23° c. 73.4°f.
* Wind from: 060° Speed 03 kn.
Dewpoint: 22° c.
Visibility: 10 Statute Miles.
Clouds: Few 4800 ft.
Clouds: Few 8000 ft.

KCNU 210602Z AUTO 06003KT 10SM VCTS FEW048 FEW080 23/22 A2996 RMK AO2 LTG DSNT SE-W TSE0556 T02280217


Wind From 060°
Speed 03 kn.

 
 
jpsmedia.com for Web Design worldairports.se 2018   terms of use